createdAt,value
2018-12-09T00:02:04.594Z,7.00
2018-12-09T00:05:11.987Z,7.00
2018-12-09T00:08:16.367Z,7.10
2018-12-09T00:11:21.265Z,7.00
2018-12-09T00:14:25.680Z,7.10
2018-12-09T00:17:31.116Z,7.10
2018-12-09T00:20:35.771Z,7.10
2018-12-09T00:23:40.376Z,7.10
2018-12-09T00:26:45.829Z,7.10
2018-12-09T00:29:50.380Z,7.00
2018-12-09T00:32:56.695Z,7.10
2018-12-09T00:36:01.249Z,7.00
2018-12-09T00:39:07.710Z,7.10
2018-12-09T00:42:12.441Z,7.10
2018-12-09T00:45:17.248Z,7.10
2018-12-09T00:48:22.062Z,7.00
2018-12-09T00:51:26.650Z,7.00
2018-12-09T00:54:31.363Z,7.00
2018-12-09T00:57:36.194Z,7.00
2018-12-09T01:00:40.878Z,7.10
2018-12-09T01:03:46.594Z,7.10
2018-12-09T01:10:06.704Z,7.10
2018-12-09T01:13:11.653Z,7.10
2018-12-09T01:16:16.176Z,7.10
2018-12-09T01:19:20.719Z,7.20
2018-12-09T01:22:25.731Z,7.10
2018-12-09T01:25:30.505Z,7.10
2018-12-09T01:28:35.259Z,7.00
2018-12-09T01:31:39.898Z,7.00
2018-12-09T01:34:44.538Z,7.00
2018-12-09T01:37:50.451Z,7.00
2018-12-09T01:40:55.788Z,7.00
2018-12-09T01:44:00.301Z,6.90
2018-12-09T01:47:06.521Z,6.90
2018-12-09T01:50:11.215Z,6.80
2018-12-09T01:54:37.106Z,6.70
2018-12-09T01:57:42.335Z,6.70
2018-12-09T02:00:47.080Z,6.60
2018-12-09T02:03:51.577Z,6.60
2018-12-09T02:06:56.234Z,6.50
2018-12-09T02:10:00.697Z,6.40
2018-12-09T02:13:05.444Z,6.30
2018-12-09T02:16:10.031Z,6.30
2018-12-09T02:19:22.576Z,6.20
2018-12-09T02:22:27.144Z,6.10
2018-12-09T02:25:36.231Z,6.10
2018-12-09T02:28:40.964Z,6.10
2018-12-09T02:31:45.880Z,6.00
2018-12-09T02:34:55.939Z,6.00
2018-12-09T02:38:00.489Z,5.90
2018-12-09T02:41:05.046Z,6.00
2018-12-09T02:44:09.947Z,6.00
2018-12-09T02:47:14.940Z,6.10
2018-12-09T02:50:19.917Z,6.20
2018-12-09T02:53:24.693Z,6.20
2018-12-09T02:56:32.590Z,6.20
2018-12-09T02:59:37.367Z,6.20
2018-12-09T03:02:41.943Z,6.20
2018-12-09T03:05:46.671Z,6.20
2018-12-09T03:08:51.149Z,6.10
2018-12-09T03:11:56.234Z,6.10
2018-12-09T03:15:01.639Z,6.10
2018-12-09T03:18:06.421Z,6.10
2018-12-09T03:21:11.045Z,6.10
2018-12-09T03:24:15.767Z,6.10
2018-12-09T03:27:20.929Z,6.20
2018-12-09T03:30:25.601Z,6.20
2018-12-09T03:33:30.294Z,6.10
2018-12-09T03:36:35.174Z,6.20
2018-12-09T03:39:39.928Z,6.30
2018-12-09T03:42:44.410Z,6.20
2018-12-09T03:45:48.962Z,6.20
2018-12-09T03:48:53.516Z,6.20
2018-12-09T03:51:58.256Z,6.20
2018-12-09T03:55:03.071Z,6.20
2018-12-09T03:58:07.528Z,6.20
2018-12-09T04:01:12.380Z,6.20
2018-12-09T04:04:17.540Z,6.10
2018-12-09T04:07:22.310Z,6.10
2018-12-09T04:10:27.009Z,6.00
2018-12-09T04:13:31.682Z,6.00
2018-12-09T04:16:37.604Z,5.90
2018-12-09T04:19:42.238Z,5.90
2018-12-09T04:22:47.807Z,5.90
2018-12-09T04:25:52.476Z,5.90
2018-12-09T04:28:57.074Z,5.90
2018-12-09T04:32:01.684Z,5.90
2018-12-09T04:35:06.974Z,5.90
2018-12-09T04:38:11.614Z,6.00
2018-12-09T04:41:17.517Z,6.10
2018-12-09T04:44:22.182Z,6.20
2018-12-09T04:47:27.899Z,6.20
2018-12-09T04:50:32.538Z,6.30
2018-12-09T04:53:38.174Z,6.30
2018-12-09T04:56:43.408Z,6.30
2018-12-09T04:59:51.562Z,6.30
2018-12-09T05:02:57.107Z,6.40
2018-12-09T05:06:01.418Z,6.40
2018-12-09T05:09:07.192Z,6.40
2018-12-09T05:12:11.688Z,6.40
2018-12-09T05:15:16.607Z,6.40
2018-12-09T05:18:21.875Z,6.40
2018-12-09T05:21:26.895Z,6.40
2018-12-09T05:24:31.467Z,6.40
2018-12-09T05:27:36.252Z,6.40
2018-12-09T05:30:40.629Z,6.30
2018-12-09T05:33:46.659Z,6.30
2018-12-09T05:36:51.076Z,6.20
2018-12-09T05:39:56.671Z,6.20
2018-12-09T05:43:02.080Z,6.20
2018-12-09T05:46:08.480Z,6.20
2018-12-09T05:49:13.112Z,6.20
2018-12-09T05:52:17.685Z,6.20
2018-12-09T05:55:22.200Z,6.30
2018-12-09T05:58:29.286Z,6.30
2018-12-09T06:01:33.923Z,6.40
2018-12-09T06:04:38.640Z,6.40
2018-12-09T06:07:44.004Z,6.40
2018-12-09T06:10:49.154Z,6.40
2018-12-09T06:13:53.808Z,6.30
2018-12-09T06:16:58.276Z,6.30
2018-12-09T06:20:03.018Z,6.30
2018-12-09T06:23:07.358Z,6.20
2018-12-09T06:26:12.496Z,6.10
2018-12-09T06:29:16.906Z,6.10
2018-12-09T06:32:21.281Z,6.00
2018-12-09T06:35:26.966Z,6.00
2018-12-09T06:38:31.430Z,6.00
2018-12-09T06:41:37.066Z,6.00
2018-12-09T06:44:42.568Z,6.00
2018-12-09T06:47:48.181Z,5.90
2018-12-09T06:50:52.605Z,5.90
2018-12-09T06:53:57.018Z,5.90
2018-12-09T06:57:01.409Z,5.90
2018-12-09T07:00:09.530Z,6.00
2018-12-09T07:03:14.529Z,6.00
2018-12-09T07:06:18.980Z,6.00
2018-12-09T07:09:23.799Z,5.90
2018-12-09T07:12:28.671Z,5.90
2018-12-09T07:15:33.307Z,5.90
2018-12-09T07:18:37.841Z,5.90
2018-12-09T07:21:42.328Z,5.90
2018-12-09T07:24:47.361Z,5.90
2018-12-09T07:27:51.888Z,5.80
2018-12-09T07:30:56.564Z,5.80
2018-12-09T07:34:01.382Z,5.80
2018-12-09T07:37:06.238Z,5.80
2018-12-09T07:40:12.547Z,5.90
2018-12-09T07:43:17.196Z,5.90
2018-12-09T07:46:21.649Z,5.90
2018-12-09T07:49:26.515Z,5.90
2018-12-09T07:52:31.620Z,6.00
2018-12-09T07:55:35.986Z,5.90
2018-12-09T07:58:40.705Z,5.90
2018-12-09T08:01:46.016Z,5.90
2018-12-09T08:04:50.549Z,5.90
2018-12-09T08:07:54.973Z,5.90
2018-12-09T08:10:59.342Z,6.00
2018-12-09T08:14:04.226Z,6.00
2018-12-09T08:17:08.578Z,6.00
2018-12-09T08:20:13.796Z,5.90
2018-12-09T08:23:18.336Z,6.00
2018-12-09T08:26:22.778Z,6.00
2018-12-09T08:29:27.266Z,6.00
2018-12-09T08:32:32.036Z,5.90
2018-12-09T08:35:37.698Z,5.80
2018-12-09T08:38:42.961Z,5.70
2018-12-09T08:41:47.318Z,5.60
2018-12-09T08:44:51.800Z,5.50
2018-12-09T08:47:57.003Z,5.50
2018-12-09T08:51:02.226Z,5.50
2018-12-09T08:54:06.548Z,5.50
2018-12-09T08:57:11.382Z,5.50
2018-12-09T09:00:15.899Z,5.50
2018-12-09T09:03:20.430Z,5.60
2018-12-09T09:06:24.949Z,5.70
2018-12-09T09:09:29.518Z,5.70
2018-12-09T09:12:34.044Z,5.80
2018-12-09T09:15:42.272Z,5.90
2018-12-09T09:18:46.840Z,6.00
2018-12-09T09:21:52.044Z,6.10
2018-12-09T09:24:58.351Z,6.20
2018-12-09T09:28:02.738Z,6.20
2018-12-09T09:31:07.176Z,6.20
2018-12-09T09:34:12.556Z,6.30
2018-12-09T09:37:16.984Z,6.40
2018-12-09T09:43:37.276Z,6.50
2018-12-09T09:49:55.812Z,6.70
2018-12-09T09:53:00.970Z,6.60
2018-12-09T09:56:05.561Z,6.70
2018-12-09T09:59:12.684Z,6.70
2018-12-09T10:02:17.207Z,6.70
2018-12-09T10:05:23.386Z,6.80
2018-12-09T10:08:28.073Z,6.80
2018-12-09T10:11:36.765Z,6.90
2018-12-09T10:14:42.226Z,6.90
2018-12-09T10:21:09.969Z,6.80
2018-12-09T10:24:14.621Z,6.70
2018-12-09T10:27:19.317Z,6.60
2018-12-09T10:33:38.579Z,6.50
2018-12-09T10:36:49.044Z,6.50
2018-12-09T10:39:54.319Z,6.60
2018-12-09T10:42:59.163Z,6.60
2018-12-09T10:46:13.067Z,6.60
2018-12-09T10:49:18.581Z,6.50
2018-12-09T10:52:23.701Z,6.50
2018-12-09T10:55:29.897Z,6.40
2018-12-09T10:58:34.638Z,6.40
2018-12-09T11:01:39.328Z,6.40
2018-12-09T11:04:44.856Z,6.30
2018-12-09T11:07:50.690Z,6.30
2018-12-09T11:14:22.495Z,6.40
2018-12-09T11:17:28.652Z,6.40
2018-12-09T11:20:33.162Z,6.40
2018-12-09T11:23:40.669Z,6.40
2018-12-09T11:30:12.705Z,6.40
2018-12-09T11:33:17.624Z,6.30
2018-12-09T11:36:22.685Z,6.30
2018-12-09T11:42:39.731Z,6.40
2018-12-09T11:45:45.648Z,6.50
2018-12-09T11:48:50.933Z,6.50
2018-12-09T11:51:55.568Z,6.40
2018-12-09T11:55:00.117Z,6.40
2018-12-09T11:58:04.921Z,6.40
2018-12-09T12:01:09.555Z,6.40
2018-12-09T12:04:14.040Z,6.40
2018-12-09T12:07:18.491Z,6.40
2018-12-09T12:10:23.047Z,6.40
2018-12-09T12:13:27.518Z,6.50
2018-12-09T12:16:31.913Z,6.50
2018-12-09T12:19:36.211Z,6.60
2018-12-09T12:22:41.885Z,6.60
2018-12-09T12:25:46.328Z,6.60
2018-12-09T12:28:50.662Z,6.60
2018-12-09T12:31:55.598Z,6.60
2018-12-09T12:35:00.032Z,6.60
2018-12-09T12:38:04.551Z,6.50
2018-12-09T12:41:09.002Z,6.50
2018-12-09T12:44:13.812Z,6.50
2018-12-09T12:47:18.120Z,6.60
2018-12-09T12:50:22.748Z,6.60
2018-12-09T12:53:27.295Z,6.60
2018-12-09T12:56:31.727Z,6.60
2018-12-09T12:59:36.220Z,6.60
2018-12-09T13:02:40.686Z,6.60
2018-12-09T13:05:45.174Z,6.60
2018-12-09T13:08:49.569Z,6.60
2018-12-09T13:11:53.937Z,6.60
2018-12-09T13:14:58.364Z,6.70
2018-12-09T13:18:02.688Z,6.60
2018-12-09T13:21:07.376Z,6.70
2018-12-09T13:24:13.237Z,6.60
2018-12-09T13:27:17.815Z,6.60
2018-12-09T13:30:22.237Z,6.50
2018-12-09T13:33:26.615Z,6.50
2018-12-09T13:36:33.836Z,6.40
2018-12-09T13:39:38.741Z,6.40
2018-12-09T13:42:43.135Z,6.40
2018-12-09T13:45:47.523Z,6.40
2018-12-09T13:48:55.957Z,6.50
2018-12-09T13:52:00.261Z,6.50
2018-12-09T13:55:05.532Z,6.60
2018-12-09T13:58:09.950Z,6.60
2018-12-09T14:01:14.365Z,6.70
2018-12-09T14:04:18.712Z,6.70
2018-12-09T14:07:23.125Z,6.70
2018-12-09T14:10:28.681Z,6.70
2018-12-09T14:13:34.657Z,6.80
2018-12-09T14:19:53.237Z,6.70
2018-12-09T14:22:59.527Z,6.80
2018-12-09T14:26:05.399Z,6.70
2018-12-09T14:29:09.737Z,6.80
2018-12-09T14:32:17.035Z,6.80
2018-12-09T14:35:22.973Z,6.90
2018-12-09T14:38:27.461Z,6.90
2018-12-09T14:41:32.605Z,6.90
2018-12-09T14:44:39.429Z,6.90
2018-12-09T14:47:46.207Z,6.80
2018-12-09T14:50:50.971Z,6.80
2018-12-09T14:53:58.318Z,6.80
2018-12-09T14:57:03.179Z,6.70
2018-12-09T15:00:09.810Z,6.60
2018-12-09T15:03:17.836Z,6.60
2018-12-09T15:06:25.545Z,6.50
2018-12-09T15:09:35.438Z,6.60
2018-12-09T15:12:41.518Z,6.50
2018-12-09T15:15:46.079Z,6.40
2018-12-09T15:18:51.812Z,6.40
2018-12-09T15:21:56.455Z,6.40
2018-12-09T15:25:00.978Z,6.40
2018-12-09T15:28:05.633Z,6.30
2018-12-09T15:31:10.513Z,6.20
2018-12-09T15:34:15.185Z,6.20
2018-12-09T15:37:19.856Z,6.20
2018-12-09T15:40:24.552Z,6.20
2018-12-09T15:43:29.941Z,6.20
2018-12-09T15:46:34.732Z,6.10
2018-12-09T15:49:39.552Z,6.20
2018-12-09T15:52:44.366Z,6.20
2018-12-09T15:55:49.014Z,6.20
2018-12-09T15:58:54.794Z,6.40
2018-12-09T16:01:59.472Z,6.40
2018-12-09T16:05:04.107Z,6.30
2018-12-09T16:08:08.520Z,6.30
2018-12-09T16:11:13.638Z,6.40
2018-12-09T16:14:18.740Z,6.40
2018-12-09T16:20:38.165Z,6.40
2018-12-09T16:23:43.212Z,6.40
2018-12-09T16:26:47.738Z,6.30
2018-12-09T16:29:52.398Z,6.30
2018-12-09T16:32:56.786Z,6.30
2018-12-09T16:36:01.306Z,6.20
2018-12-09T16:39:07.831Z,6.20
2018-12-09T16:42:12.297Z,6.20
2018-12-09T16:45:16.991Z,6.20
2018-12-09T16:48:21.489Z,6.10
2018-12-09T16:51:31.679Z,6.00
2018-12-09T16:57:52.020Z,6.00
2018-12-09T17:00:57.774Z,6.00
2018-12-09T17:04:02.789Z,5.90
2018-12-09T17:07:07.522Z,6.00
2018-12-09T17:10:12.209Z,5.90
2018-12-09T17:13:16.818Z,5.80
2018-12-09T17:16:21.451Z,5.90
2018-12-09T17:19:27.127Z,5.80
2018-12-09T17:22:31.495Z,5.80
2018-12-09T17:25:37.623Z,5.80
2018-12-09T17:28:43.365Z,5.90
2018-12-09T17:31:50.251Z,5.90
2018-12-09T17:34:54.611Z,5.90
2018-12-09T17:37:59.364Z,5.90
2018-12-09T17:41:04.074Z,5.90
2018-12-09T17:44:08.703Z,5.90
2018-12-09T17:47:18.326Z,5.80
2018-12-09T17:50:34.900Z,5.90
2018-12-09T17:53:39.602Z,5.90
2018-12-09T17:56:43.967Z,5.90
2018-12-09T17:59:48.796Z,5.90
2018-12-09T18:02:53.350Z,6.00
2018-12-09T18:05:58.155Z,6.00
2018-12-09T18:09:03.069Z,5.90
2018-12-09T18:12:10.482Z,5.90
2018-12-09T18:15:19.614Z,6.00
2018-12-09T18:18:24.619Z,6.00
2018-12-09T18:21:29.230Z,5.90
2018-12-09T18:24:33.837Z,6.00
2018-12-09T18:27:38.802Z,6.00
2018-12-09T18:30:43.295Z,5.90
2018-12-09T18:33:50.803Z,5.90
2018-12-09T18:36:55.644Z,5.80
2018-12-09T18:40:00.445Z,5.80
2018-12-09T18:43:05.273Z,5.80
2018-12-09T18:46:09.753Z,5.80
2018-12-09T18:49:14.451Z,5.70
2018-12-09T18:52:19.044Z,5.60
2018-12-09T18:55:24.105Z,5.60
2018-12-09T18:58:28.704Z,5.50
2018-12-09T19:01:33.518Z,5.50
2018-12-09T19:04:38.283Z,5.40
2018-12-09T19:07:43.131Z,5.50
2018-12-09T19:10:49.304Z,5.60
2018-12-09T19:13:54.489Z,5.50
2018-12-09T19:16:59.157Z,5.50
2018-12-09T19:20:05.192Z,5.40
2018-12-09T19:23:09.952Z,5.50
2018-12-09T19:26:16.731Z,5.50
2018-12-09T19:29:22.587Z,5.40
2018-12-09T19:32:28.784Z,5.40
2018-12-09T19:35:33.954Z,5.50
2018-12-09T19:38:40.322Z,4.20
2018-12-09T19:41:45.543Z,5.50
2018-12-09T19:44:51.121Z,5.50
2018-12-09T19:47:57.306Z,5.50
2018-12-09T19:51:02.358Z,5.40
2018-12-09T19:54:07.533Z,5.30
2018-12-09T19:57:14.670Z,5.40
2018-12-09T20:00:19.486Z,5.40
2018-12-09T20:03:24.345Z,5.40
2018-12-09T20:06:29.533Z,5.30
2018-12-09T20:09:34.200Z,5.40
2018-12-09T20:12:39.115Z,5.40
2018-12-09T20:15:48.660Z,5.40
2018-12-09T20:18:53.812Z,5.50
2018-12-09T20:21:58.834Z,5.40
2018-12-09T20:25:04.247Z,5.50
2018-12-09T20:28:09.265Z,5.40
2018-12-09T20:31:14.308Z,5.30
2018-12-09T20:34:20.118Z,5.30
2018-12-09T20:37:25.082Z,5.20
2018-12-09T20:40:30.057Z,5.20
2018-12-09T20:43:35.549Z,5.10
2018-12-09T20:46:40.493Z,5.20
2018-12-09T20:49:45.261Z,5.20
2018-12-09T20:52:50.417Z,5.20
2018-12-09T20:55:55.288Z,5.20
2018-12-09T20:59:00.145Z,5.10
2018-12-09T21:02:05.429Z,5.10
2018-12-09T21:05:11.577Z,5.00
2018-12-09T21:08:16.774Z,5.00
2018-12-09T21:11:22.409Z,5.00
2018-12-09T21:14:30.468Z,5.10
2018-12-09T21:17:34.977Z,5.10
2018-12-09T21:20:39.931Z,5.10
2018-12-09T21:23:44.712Z,5.10
2018-12-09T21:30:03.775Z,5.00
2018-12-09T21:33:09.869Z,5.00
2018-12-09T21:36:14.467Z,4.90
2018-12-09T21:39:19.406Z,4.90
2018-12-09T21:42:24.406Z,4.90
2018-12-09T21:45:29.602Z,4.90
2018-12-09T21:48:34.110Z,4.90
2018-12-09T21:51:38.671Z,4.90
2018-12-09T21:54:45.908Z,5.00
2018-12-09T21:57:51.561Z,5.00
2018-12-09T22:00:57.752Z,5.00
2018-12-09T22:04:03.113Z,4.90
2018-12-09T22:07:07.566Z,5.00
2018-12-09T22:10:12.421Z,5.00
2018-12-09T22:13:17.320Z,5.10
2018-12-09T22:16:22.394Z,5.00
2018-12-09T22:19:27.290Z,5.20
2018-12-09T22:22:32.188Z,5.10
2018-12-09T22:25:37.340Z,5.10
2018-12-09T22:28:41.817Z,5.10
2018-12-09T22:31:48.645Z,5.00
2018-12-09T22:34:53.454Z,5.10
2018-12-09T22:41:12.203Z,5.20
2018-12-09T22:44:17.042Z,5.20
2018-12-09T22:47:21.958Z,5.10
2018-12-09T22:50:26.741Z,5.00
2018-12-09T22:53:31.443Z,5.00
2018-12-09T22:56:36.259Z,4.90
2018-12-09T22:59:41.628Z,4.90
2018-12-09T23:02:51.365Z,4.90
2018-12-09T23:05:57.746Z,4.90
2018-12-09T23:09:02.765Z,5.00
2018-12-09T23:12:07.237Z,4.90
2018-12-09T23:15:12.281Z,5.00
2018-12-09T23:18:16.875Z,5.10
2018-12-09T23:21:21.566Z,5.10
2018-12-09T23:27:25.881Z,5.00
2018-12-09T23:30:30.314Z,5.10
2018-12-09T23:33:35.388Z,5.10
2018-12-09T23:36:39.970Z,5.10
2018-12-09T23:39:44.601Z,5.10
2018-12-09T23:42:50.017Z,5.20
2018-12-09T23:45:54.676Z,5.10
2018-12-09T23:48:59.385Z,5.20
2018-12-09T23:52:05.747Z,5.20
2018-12-09T23:55:10.140Z,5.20
2018-12-09T23:58:15.042Z,5.20
